createdAt,value
2023-04-15T00:00:08.562Z,100.00
2023-04-15T00:03:10.780Z,100.00
2023-04-15T00:06:13.698Z,100.00
2023-04-15T00:09:15.874Z,100.00
2023-04-15T00:12:17.672Z,100.00
2023-04-15T00:15:19.712Z,100.00
2023-04-15T00:18:21.857Z,100.00
2023-04-15T00:21:23.836Z,100.00
2023-04-15T00:24:25.600Z,100.00
2023-04-15T00:27:27.516Z,100.00
2023-04-15T00:30:29.369Z,100.00
2023-04-15T00:33:31.918Z,100.00
2023-04-15T00:36:35.097Z,100.00
2023-04-15T00:39:36.997Z,100.00
2023-04-15T00:42:39.507Z,100.00
2023-04-15T00:45:41.378Z,100.00
2023-04-15T00:48:44.080Z,100.00
2023-04-15T00:51:46.211Z,100.00
2023-04-15T00:54:48.030Z,100.00
2023-04-15T00:57:50.703Z,100.00
2023-04-15T01:00:54.513Z,100.00
2023-04-15T01:04:00.699Z,100.00
2023-04-15T01:07:02.647Z,100.00
2023-04-15T01:10:05.212Z,100.00
2023-04-15T01:13:07.097Z,100.00
2023-04-15T01:16:09.646Z,100.00
2023-04-15T01:19:12.150Z,100.00
2023-04-15T01:22:14.526Z,100.00
2023-04-15T01:25:20.411Z,100.00
2023-04-15T01:28:22.377Z,100.00
2023-04-15T01:31:24.272Z,100.00
2023-04-15T01:34:26.383Z,100.00
2023-04-15T01:37:28.453Z,100.00
2023-04-15T01:40:30.435Z,100.00
2023-04-15T01:43:32.514Z,100.00
2023-04-15T01:46:34.557Z,100.00
2023-04-15T01:49:37.201Z,100.00
2023-04-15T01:52:39.104Z,100.00
2023-04-15T01:55:41.322Z,100.00
2023-04-15T01:58:45.587Z,100.00
2023-04-15T02:01:47.363Z,100.00
2023-04-15T02:04:49.142Z,100.00
2023-04-15T02:07:51.349Z,100.00
2023-04-15T02:10:53.233Z,100.00
2023-04-15T02:13:55.160Z,100.00
2023-04-15T02:16:57.020Z,100.00
2023-04-15T02:19:59.346Z,100.00
2023-04-15T02:23:01.925Z,100.00
2023-04-15T02:26:03.756Z,100.00
2023-04-15T02:29:05.897Z,100.00
2023-04-15T02:32:08.248Z,100.00
2023-04-15T02:35:10.268Z,100.00
2023-04-15T02:38:12.284Z,100.00
2023-04-15T02:41:14.311Z,100.00
2023-04-15T02:44:17.660Z,100.00
2023-04-15T02:47:19.515Z,100.00
2023-04-15T02:50:21.560Z,100.00
2023-04-15T02:53:23.372Z,100.00
2023-04-15T02:56:25.361Z,100.00
2023-04-15T02:59:27.298Z,100.00
2023-04-15T03:02:34.710Z,100.00
2023-04-15T03:05:38.967Z,100.00
2023-04-15T03:08:41.604Z,100.00
2023-04-15T03:11:43.485Z,100.00
2023-04-15T03:14:45.585Z,100.00
2023-04-15T03:17:49.566Z,100.00
2023-04-15T03:20:51.821Z,100.00
2023-04-15T03:23:53.827Z,100.00
2023-04-15T03:26:56.473Z,100.00
2023-04-15T03:29:58.240Z,100.00
2023-04-15T03:33:00.093Z,100.00
2023-04-15T03:36:01.971Z,100.00
2023-04-15T03:39:04.271Z,100.00
2023-04-15T03:42:06.234Z,100.00
2023-04-15T03:45:08.373Z,100.00
2023-04-15T03:48:16.482Z,100.00
2023-04-15T03:51:19.399Z,100.00
2023-04-15T03:54:21.299Z,100.00
2023-04-15T03:57:23.133Z,100.00
2023-04-15T04:00:25.475Z,100.00
2023-04-15T04:03:27.629Z,100.00
2023-04-15T04:06:29.634Z,100.00
2023-04-15T04:09:31.697Z,100.00
2023-04-15T04:12:33.540Z,100.00
2023-04-15T04:15:35.698Z,100.00
2023-04-15T04:18:37.512Z,100.00
2023-04-15T04:21:39.749Z,100.00
2023-04-15T04:24:41.677Z,100.00
2023-04-15T04:27:43.648Z,100.00
2023-04-15T04:30:45.654Z,100.00
2023-04-15T04:33:47.380Z,100.00
2023-04-15T04:36:49.104Z,100.00
2023-04-15T04:39:51.166Z,100.00
2023-04-15T04:42:53.808Z,100.00
2023-04-15T04:45:55.830Z,100.00
2023-04-15T04:48:58.076Z,100.00
2023-04-15T04:52:00.566Z,100.00
2023-04-15T04:55:02.409Z,100.00
2023-04-15T04:58:04.291Z,100.00
2023-04-15T05:01:06.153Z,100.00
2023-04-15T05:04:08.186Z,100.00
2023-04-15T05:07:10.826Z,100.00
2023-04-15T05:10:12.984Z,100.00
2023-04-15T05:13:14.908Z,100.00
2023-04-15T05:16:17.738Z,100.00
2023-04-15T05:19:19.754Z,100.00
2023-04-15T05:22:21.807Z,100.00
2023-04-15T05:25:23.573Z,100.00
2023-04-15T05:28:25.689Z,100.00
2023-04-15T05:31:27.690Z,100.00
2023-04-15T05:34:29.509Z,100.00
2023-04-15T05:37:31.330Z,100.00
2023-04-15T05:40:33.130Z,100.00
2023-04-15T05:43:35.331Z,100.00
2023-04-15T05:46:37.300Z,100.00
2023-04-15T05:49:39.232Z,100.00
2023-04-15T05:52:41.211Z,100.00
2023-04-15T05:55:42.955Z,100.00
2023-04-15T05:58:44.882Z,100.00
2023-04-15T06:01:47.200Z,100.00
2023-04-15T06:04:49.193Z,100.00
2023-04-15T06:07:51.381Z,100.00
2023-04-15T06:10:53.172Z,100.00
2023-04-15T06:13:55.244Z,100.00
2023-04-15T06:16:57.294Z,100.00
2023-04-15T06:19:59.241Z,100.00
2023-04-15T06:23:01.140Z,100.00
2023-04-15T06:26:03.158Z,100.00
2023-04-15T06:29:04.960Z,100.00
2023-04-15T06:32:07.139Z,100.00
2023-04-15T06:35:09.383Z,100.00
2023-04-15T06:38:11.438Z,100.00
2023-04-15T06:41:13.434Z,100.00
2023-04-15T06:44:15.170Z,100.00
2023-04-15T06:47:16.918Z,100.00
2023-04-15T06:50:18.824Z,100.00
2023-04-15T06:53:20.778Z,100.00
2023-04-15T06:56:23.421Z,100.00
2023-04-15T06:59:25.424Z,100.00
2023-04-15T07:02:27.690Z,100.00
2023-04-15T07:05:31.056Z,100.00
2023-04-15T07:08:33.759Z,100.00
2023-04-15T07:11:36.576Z,100.00
2023-04-15T07:14:38.378Z,100.00
2023-04-15T07:17:41.764Z,100.00
2023-04-15T07:20:44.188Z,100.00
2023-04-15T07:23:46.481Z,100.00
2023-04-15T07:26:50.551Z,100.00
2023-04-15T07:29:53.621Z,100.00
2023-04-15T07:33:01.407Z,100.00
2023-04-15T07:36:04.576Z,100.00
2023-04-15T07:39:06.760Z,100.00
2023-04-15T07:42:08.812Z,100.00
2023-04-15T07:45:11.596Z,100.00
2023-04-15T07:48:13.437Z,100.00
2023-04-15T07:51:15.283Z,97.67
2023-04-15T07:54:17.189Z,97.35
2023-04-15T07:57:18.947Z,97.91
2023-04-15T08:00:20.818Z,96.98
2023-04-15T08:03:23.800Z,95.60
2023-04-15T08:06:25.902Z,93.93
2023-04-15T08:09:27.684Z,94.90
2023-04-15T08:12:29.522Z,93.89
2023-04-15T08:15:32.942Z,92.92
2023-04-15T08:18:35.115Z,90.72
2023-04-15T08:21:37.196Z,87.75
2023-04-15T08:24:39.212Z,84.96
2023-04-15T08:27:41.587Z,84.51
2023-04-15T08:30:43.417Z,81.35
2023-04-15T08:33:46.077Z,81.72
2023-04-15T08:36:47.988Z,81.43
2023-04-15T08:39:50.089Z,81.66
2023-04-15T08:42:54.426Z,81.48
2023-04-15T08:45:59.032Z,82.40
2023-04-15T08:49:04.286Z,82.73
2023-04-15T08:52:07.494Z,83.11
2023-04-15T08:55:09.854Z,82.60
2023-04-15T08:58:16.028Z,82.42
2023-04-15T09:01:17.942Z,81.79
2023-04-15T09:04:20.583Z,79.99
2023-04-15T09:07:22.394Z,77.72
2023-04-15T09:10:24.231Z,76.41
2023-04-15T09:13:26.101Z,75.72
2023-04-15T09:16:28.483Z,74.06
2023-04-15T09:19:31.619Z,74.28
2023-04-15T09:22:33.545Z,74.53
2023-04-15T09:25:35.804Z,73.30
2023-04-15T09:28:43.836Z,73.59
2023-04-15T09:31:46.464Z,73.55
2023-04-15T09:34:48.324Z,74.41
2023-04-15T09:37:50.971Z,74.38
2023-04-15T09:40:52.821Z,75.06
2023-04-15T09:43:55.163Z,76.51
2023-04-15T09:46:56.906Z,75.69
2023-04-15T09:50:01.017Z,75.10
2023-04-15T09:53:04.018Z,72.69
2023-04-15T09:56:08.074Z,68.45
2023-04-15T09:59:10.021Z,70.26
2023-04-15T10:02:13.867Z,69.58
2023-04-15T10:05:17.934Z,70.85
2023-04-15T10:08:21.937Z,68.27
2023-04-15T10:11:24.803Z,66.93
2023-04-15T10:14:29.290Z,65.88
2023-04-15T10:17:35.668Z,67.24
2023-04-15T10:20:38.551Z,67.33
2023-04-15T10:23:40.371Z,67.66
2023-04-15T10:26:42.949Z,67.66
2023-04-15T10:29:45.530Z,66.57
2023-04-15T10:32:47.501Z,67.04
2023-04-15T10:35:51.737Z,69.24
2023-04-15T10:38:53.689Z,69.35
2023-04-15T10:42:15.941Z,70.84
2023-04-15T10:45:19.404Z,69.81
2023-04-15T10:48:21.185Z,69.34
2023-04-15T10:51:30.690Z,69.30
2023-04-15T10:54:33.676Z,70.30
2023-04-15T10:57:38.716Z,69.59
2023-04-15T11:00:40.464Z,70.62
2023-04-15T11:03:43.811Z,70.08
2023-04-15T11:06:46.253Z,69.45
2023-04-15T11:09:48.038Z,69.58
2023-04-15T11:12:58.190Z,69.74
2023-04-15T11:16:01.709Z,70.17
2023-04-15T11:19:03.869Z,70.36
2023-04-15T11:22:10.222Z,70.58
2023-04-15T11:25:29.540Z,71.69
2023-04-15T11:28:32.170Z,72.13
2023-04-15T11:31:36.337Z,70.53
2023-04-15T11:34:38.218Z,69.52
2023-04-15T11:37:40.655Z,70.09
2023-04-15T11:40:46.220Z,69.03
2023-04-15T11:43:49.755Z,69.59
2023-04-15T11:46:51.614Z,69.72
2023-04-15T11:49:53.378Z,69.48
2023-04-15T11:52:59.789Z,69.15
2023-04-15T11:56:01.943Z,69.29
2023-04-15T11:59:04.515Z,69.07
2023-04-15T12:02:15.240Z,69.45
2023-04-15T12:05:17.410Z,69.01
2023-04-15T12:08:19.362Z,68.41
2023-04-15T12:11:57.530Z,68.95
2023-04-15T12:14:59.973Z,69.32
2023-04-15T12:18:01.934Z,69.53
2023-04-15T12:21:14.650Z,69.24
2023-04-15T12:24:21.446Z,69.37
2023-04-15T12:27:29.681Z,68.63
2023-04-15T12:30:32.264Z,68.04
2023-04-15T12:33:34.738Z,69.09
2023-04-15T12:36:37.226Z,68.93
2023-04-15T12:39:41.155Z,68.92
2023-04-15T12:42:43.012Z,68.79
2023-04-15T12:45:44.856Z,68.98
2023-04-15T12:48:46.666Z,68.53
2023-04-15T12:51:50.400Z,68.07
2023-04-15T12:54:53.375Z,68.90
2023-04-15T12:57:55.154Z,68.38
2023-04-15T13:00:57.474Z,68.47
2023-04-15T13:03:59.511Z,68.85
2023-04-15T13:07:02.211Z,67.64
2023-04-15T13:10:04.259Z,68.08
2023-04-15T13:13:06.254Z,68.21
2023-04-15T13:16:08.331Z,69.08
2023-04-15T13:19:10.730Z,69.75
2023-04-15T13:22:14.934Z,70.49
2023-04-15T13:25:16.814Z,70.57
2023-04-15T13:28:18.728Z,70.79
2023-04-15T13:31:20.547Z,70.96
2023-04-15T13:34:23.415Z,71.54
2023-04-15T13:37:30.004Z,71.21
2023-04-15T13:40:31.870Z,71.44
2023-04-15T13:43:34.371Z,71.27
2023-04-15T13:46:36.304Z,70.67
2023-04-15T13:49:38.177Z,70.43
2023-04-15T13:52:43.311Z,71.44
2023-04-15T13:55:45.384Z,69.61
2023-04-15T13:58:47.130Z,71.13
2023-04-15T14:01:49.200Z,71.06
2023-04-15T14:04:51.422Z,70.41
2023-04-15T14:07:53.192Z,71.40
2023-04-15T14:10:54.949Z,71.31
2023-04-15T14:13:56.820Z,71.70
2023-04-15T14:16:58.833Z,71.68
2023-04-15T14:20:00.853Z,71.95
2023-04-15T14:23:03.033Z,72.35
2023-04-15T14:26:05.088Z,70.94
2023-04-15T14:29:07.315Z,73.45
2023-04-15T14:32:11.961Z,72.51
2023-04-15T14:35:14.681Z,72.88
2023-04-15T14:38:17.444Z,73.59
2023-04-15T14:41:19.528Z,73.55
2023-04-15T14:44:21.496Z,73.54
2023-04-15T14:47:23.786Z,73.88
2023-04-15T14:50:26.801Z,73.94
2023-04-15T14:53:29.267Z,74.36
2023-04-15T14:56:32.003Z,75.15
2023-04-15T14:59:34.118Z,75.61
2023-04-15T15:02:39.682Z,75.66
2023-04-15T15:05:43.130Z,76.11
2023-04-15T15:08:46.430Z,75.91
2023-04-15T15:11:48.418Z,76.08
2023-04-15T15:14:50.901Z,76.46
2023-04-15T15:17:53.972Z,77.50
2023-04-15T15:20:56.359Z,77.12
2023-04-15T15:23:58.222Z,76.98
2023-04-15T15:26:59.985Z,76.73
2023-04-15T15:30:02.024Z,76.66
2023-04-15T15:33:04.309Z,76.70
2023-04-15T15:36:10.826Z,76.52
2023-04-15T15:39:12.608Z,76.65
2023-04-15T15:42:14.684Z,77.28
2023-04-15T15:45:17.201Z,77.39
2023-04-15T15:48:19.034Z,77.82
2023-04-15T15:51:21.036Z,79.07
2023-04-15T15:54:22.873Z,79.47
2023-04-15T15:57:24.708Z,79.46
2023-04-15T16:00:26.553Z,79.81
2023-04-15T16:03:29.270Z,80.34
2023-04-15T16:06:34.459Z,80.48
2023-04-15T16:09:37.165Z,80.25
2023-04-15T16:12:39.095Z,81.26
2023-04-15T16:15:41.215Z,81.43
2023-04-15T16:18:43.133Z,82.87
2023-04-15T16:21:44.973Z,84.53
2023-04-15T16:24:46.953Z,92.13
2023-04-15T16:28:00.923Z,94.25
2023-04-15T16:31:07.712Z,93.07
2023-04-15T16:34:10.430Z,93.97
2023-04-15T16:37:12.307Z,95.20
2023-04-15T16:40:15.326Z,95.19
2023-04-15T16:43:17.593Z,97.35
2023-04-15T16:46:19.579Z,97.09
2023-04-15T16:49:21.356Z,97.41
2023-04-15T16:52:23.126Z,98.20
2023-04-15T16:55:24.974Z,99.15
2023-04-15T16:58:28.826Z,100.00
2023-04-15T17:01:31.148Z,100.00
2023-04-15T17:04:33.471Z,100.00
2023-04-15T17:07:35.799Z,100.00
2023-04-15T17:10:37.691Z,100.00
2023-04-15T17:13:40.034Z,100.00
2023-04-15T17:16:43.185Z,100.00
2023-04-15T17:19:46.583Z,100.00
2023-04-15T17:22:49.209Z,100.00
2023-04-15T17:25:51.580Z,100.00
2023-04-15T17:28:53.505Z,100.00
2023-04-15T17:31:55.846Z,100.00
2023-04-15T17:34:58.513Z,100.00
2023-04-15T17:38:00.596Z,100.00
2023-04-15T17:41:02.853Z,100.00
2023-04-15T17:44:04.950Z,100.00
2023-04-15T17:47:07.236Z,100.00
2023-04-15T17:50:11.533Z,100.00
2023-04-15T17:53:13.636Z,100.00
2023-04-15T17:56:15.644Z,100.00
2023-04-15T17:59:18.369Z,100.00
2023-04-15T18:02:20.667Z,100.00
2023-04-15T18:05:23.102Z,100.00
2023-04-15T18:08:25.687Z,100.00
2023-04-15T18:11:27.731Z,100.00
2023-04-15T18:14:34.839Z,100.00
2023-04-15T18:17:37.310Z,100.00
2023-04-15T18:20:39.418Z,100.00
2023-04-15T18:23:41.475Z,100.00
2023-04-15T18:26:43.540Z,100.00
2023-04-15T18:29:46.060Z,100.00
2023-04-15T18:32:48.309Z,100.00
2023-04-15T18:35:50.720Z,100.00
2023-04-15T18:38:53.089Z,100.00
2023-04-15T18:41:56.131Z,100.00
2023-04-15T18:44:58.634Z,100.00
2023-04-15T18:48:01.128Z,100.00
2023-04-15T18:51:03.284Z,100.00
2023-04-15T18:54:05.300Z,100.00
2023-04-15T18:57:07.314Z,100.00
2023-04-15T19:00:11.485Z,100.00
2023-04-15T19:03:13.865Z,100.00
2023-04-15T19:06:16.620Z,100.00
2023-04-15T19:09:18.801Z,100.00
2023-04-15T19:12:21.018Z,100.00
2023-04-15T19:15:23.132Z,100.00
2023-04-15T19:18:25.101Z,100.00
2023-04-15T19:21:27.898Z,100.00
2023-04-15T19:24:33.018Z,100.00
2023-04-15T19:27:35.414Z,100.00
2023-04-15T19:30:37.541Z,100.00
2023-04-15T19:33:39.707Z,100.00
2023-04-15T19:36:42.063Z,100.00
2023-04-15T19:39:44.213Z,100.00
2023-04-15T19:42:46.708Z,100.00
2023-04-15T19:45:52.150Z,100.00
2023-04-15T19:48:55.360Z,100.00
2023-04-15T19:51:57.771Z,100.00
2023-04-15T19:54:59.809Z,100.00
2023-04-15T19:58:01.865Z,100.00
2023-04-15T20:01:04.147Z,100.00
2023-04-15T20:04:07.012Z,100.00
2023-04-15T20:07:10.017Z,100.00
2023-04-15T20:10:13.298Z,100.00
2023-04-15T20:13:15.709Z,100.00
2023-04-15T20:16:17.780Z,100.00
2023-04-15T20:19:19.927Z,100.00
2023-04-15T20:22:22.097Z,100.00
2023-04-15T20:25:23.921Z,100.00
2023-04-15T20:28:27.528Z,100.00
2023-04-15T20:31:29.592Z,100.00
2023-04-15T20:34:31.710Z,100.00
2023-04-15T20:37:33.988Z,100.00
2023-04-15T20:40:36.408Z,100.00
2023-04-15T20:43:38.357Z,100.00
2023-04-15T20:46:40.563Z,100.00
2023-04-15T20:49:42.940Z,100.00
2023-04-15T20:52:44.855Z,100.00
2023-04-15T20:55:46.800Z,100.00
2023-04-15T20:58:48.845Z,100.00
2023-04-15T21:01:50.923Z,100.00
2023-04-15T21:04:52.829Z,100.00
2023-04-15T21:07:54.851Z,100.00
2023-04-15T21:10:57.389Z,100.00
2023-04-15T21:13:59.253Z,100.00
2023-04-15T21:17:08.468Z,100.00
2023-04-15T21:20:12.371Z,100.00
2023-04-15T21:23:14.271Z,100.00
2023-04-15T21:26:16.137Z,100.00
2023-04-15T21:29:18.327Z,100.00
2023-04-15T21:32:20.274Z,100.00
2023-04-15T21:35:22.152Z,100.00
2023-04-15T21:38:24.138Z,100.00
2023-04-15T21:41:26.681Z,100.00
2023-04-15T21:44:28.624Z,100.00
2023-04-15T21:47:30.639Z,100.00
2023-04-15T21:50:32.526Z,100.00
2023-04-15T21:53:34.982Z,100.00
2023-04-15T21:56:37.890Z,100.00
2023-04-15T21:59:39.685Z,100.00
2023-04-15T22:02:42.223Z,100.00
2023-04-15T22:05:45.857Z,100.00
2023-04-15T22:08:57.030Z,100.00
2023-04-15T22:11:59.988Z,100.00
2023-04-15T22:15:02.550Z,100.00
2023-04-15T22:18:05.514Z,100.00
2023-04-15T22:21:07.969Z,100.00
2023-04-15T22:24:39.238Z,100.00
2023-04-15T22:27:31.712Z,100.00
2023-04-15T22:30:39.896Z,100.00
2023-04-15T22:33:41.686Z,100.00
2023-04-15T22:36:43.419Z,100.00
2023-04-15T22:39:45.603Z,100.00
2023-04-15T22:42:48.108Z,100.00
2023-04-15T22:45:50.728Z,100.00
2023-04-15T22:48:54.130Z,100.00
2023-04-15T22:51:56.066Z,100.00
2023-04-15T22:54:58.322Z,100.00
2023-04-15T22:58:00.240Z,100.00
2023-04-15T23:01:02.572Z,100.00
2023-04-15T23:04:07.068Z,100.00
2023-04-15T23:07:12.939Z,100.00
2023-04-15T23:10:14.687Z,100.00
2023-04-15T23:13:16.477Z,100.00
2023-04-15T23:16:18.297Z,100.00
2023-04-15T23:19:20.549Z,100.00
2023-04-15T23:22:22.659Z,100.00
2023-04-15T23:25:24.439Z,100.00
2023-04-15T23:28:26.276Z,100.00
2023-04-15T23:31:28.369Z,100.00
2023-04-15T23:34:30.949Z,100.00
2023-04-15T23:37:32.810Z,100.00
2023-04-15T23:40:34.763Z,100.00
2023-04-15T23:43:36.731Z,100.00
2023-04-15T23:46:38.576Z,100.00
2023-04-15T23:49:41.011Z,100.00
2023-04-15T23:52:42.864Z,100.00
2023-04-15T23:55:44.696Z,100.00
2023-04-15T23:58:46.678Z,100.00
